createdAt,value
2018-12-19T00:00:41.024Z,23.67
2018-12-19T00:03:09.231Z,24.02
2018-12-19T00:05:37.592Z,25.52
2018-12-19T00:08:05.843Z,27.70
2018-12-19T00:10:34.031Z,24.35
2018-12-19T00:13:02.361Z,26.48
2018-12-19T00:15:30.568Z,25.60
2018-12-19T00:17:58.828Z,25.05
2018-12-19T00:20:27.056Z,23.87
2018-12-19T00:22:55.580Z,26.10
2018-12-19T00:25:23.835Z,25.30
2018-12-19T00:27:51.997Z,22.45
2018-12-19T00:30:20.290Z,19.40
2018-12-19T00:32:48.567Z,24.63
2018-12-19T00:35:16.776Z,26.07
2018-12-19T00:37:44.956Z,23.22
2018-12-19T00:40:13.191Z,24.85
2018-12-19T00:42:41.496Z,22.95
2018-12-19T00:45:09.719Z,23.30
2018-12-19T00:47:37.918Z,20.75
2018-12-19T00:50:06.966Z,26.02
2018-12-19T00:52:35.127Z,22.93
2018-12-19T00:55:03.537Z,20.23
2018-12-19T00:57:31.813Z,23.70
2018-12-19T01:00:00.164Z,21.00
2018-12-19T01:02:28.462Z,22.42
2018-12-19T01:04:56.740Z,22.58
2018-12-19T01:07:24.923Z,20.25
2018-12-19T01:09:53.228Z,21.15
2018-12-19T01:12:21.493Z,22.00
2018-12-19T01:14:49.757Z,22.50
2018-12-19T01:17:17.974Z,21.07
2018-12-19T01:19:46.260Z,22.32
2018-12-19T01:22:15.082Z,19.98
2018-12-19T01:24:43.324Z,21.70
2018-12-19T01:27:11.494Z,18.30
2018-12-19T01:29:40.079Z,20.97
2018-12-19T01:32:08.266Z,20.62
2018-12-19T01:34:36.507Z,20.62
2018-12-19T01:37:04.770Z,18.30
2018-12-19T01:39:33.036Z,19.05
2018-12-19T01:42:01.303Z,17.85
2018-12-19T01:44:29.545Z,19.92
2018-12-19T01:46:57.777Z,18.42
2018-12-19T01:49:26.085Z,19.45
2018-12-19T01:51:54.305Z,20.45
2018-12-19T01:54:22.549Z,16.30
2018-12-19T01:56:50.807Z,17.57
2018-12-19T01:59:19.097Z,20.60
2018-12-19T02:01:47.361Z,18.62
2018-12-19T02:04:15.706Z,18.17
2018-12-19T02:06:43.970Z,18.80
2018-12-19T02:09:12.196Z,18.40
2018-12-19T02:11:40.455Z,17.40
2018-12-19T02:14:08.706Z,17.30
2018-12-19T02:16:36.984Z,15.68
2018-12-19T02:19:05.215Z,19.10
2018-12-19T02:21:33.499Z,17.05
2018-12-19T02:24:01.686Z,15.40
2018-12-19T02:26:29.999Z,17.82
2018-12-19T02:28:58.184Z,15.93
2018-12-19T02:31:26.414Z,16.95
2018-12-19T02:33:54.715Z,19.05
2018-12-19T02:36:22.964Z,17.60
2018-12-19T02:38:51.219Z,16.57
2018-12-19T02:41:19.467Z,16.42
2018-12-19T02:43:47.717Z,16.00
2018-12-19T02:46:15.960Z,15.18
2018-12-19T02:48:44.175Z,15.28
2018-12-19T02:51:12.405Z,15.20
2018-12-19T02:53:40.624Z,14.68
2018-12-19T02:56:09.011Z,16.55
2018-12-19T02:58:37.318Z,15.55
2018-12-19T03:01:05.545Z,15.80
2018-12-19T03:03:33.888Z,17.50
2018-12-19T03:06:02.134Z,15.88
2018-12-19T03:08:30.344Z,15.65
2018-12-19T03:10:58.545Z,17.85
2018-12-19T03:13:26.782Z,16.77
2018-12-19T03:15:54.964Z,17.52
2018-12-19T03:18:23.205Z,16.60
2018-12-19T03:20:51.477Z,16.27
2018-12-19T03:23:19.697Z,14.50
2018-12-19T03:25:48.057Z,17.98
2018-12-19T03:28:16.371Z,16.23
2018-12-19T03:30:44.538Z,16.85
2018-12-19T03:33:12.759Z,21.33
2018-12-19T03:35:40.974Z,15.88
2018-12-19T03:38:11.092Z,14.38
2018-12-19T03:40:39.389Z,16.67
2018-12-19T03:43:07.635Z,15.00
2018-12-19T03:45:35.747Z,17.00
2018-12-19T03:48:03.977Z,15.23
2018-12-19T03:50:32.132Z,13.65
2018-12-19T03:53:00.287Z,15.28
2018-12-19T03:55:28.505Z,12.88
2018-12-19T03:57:56.832Z,15.68
2018-12-19T04:00:25.079Z,13.68
2018-12-19T04:02:53.353Z,16.02
2018-12-19T04:05:21.570Z,13.72
2018-12-19T04:07:49.748Z,12.43
2018-12-19T04:10:17.963Z,12.73
2018-12-19T04:12:46.139Z,15.60
2018-12-19T04:15:14.368Z,11.50
2018-12-19T04:17:42.719Z,14.28
2018-12-19T04:20:11.056Z,12.85
2018-12-19T04:22:39.279Z,14.63
2018-12-19T04:25:07.497Z,14.75
2018-12-19T04:27:35.875Z,12.90
2018-12-19T04:30:04.440Z,14.95
2018-12-19T04:32:32.977Z,12.60
2018-12-19T04:35:01.218Z,12.75
2018-12-19T04:37:29.356Z,12.95
2018-12-19T04:40:05.130Z,10.93
2018-12-19T04:42:27.830Z,14.53
2018-12-19T04:44:55.987Z,12.80
2018-12-19T04:47:24.270Z,12.07
2018-12-19T04:49:52.547Z,11.73
2018-12-19T04:52:20.842Z,14.10
2018-12-19T04:54:49.521Z,13.48
2018-12-19T04:57:17.766Z,12.07
2018-12-19T04:59:48.760Z,14.18
2018-12-19T05:02:16.970Z,13.15
2018-12-19T05:04:46.786Z,14.85
2018-12-19T05:07:15.097Z,12.50
2018-12-19T05:09:43.272Z,12.07
2018-12-19T05:12:11.511Z,12.05
2018-12-19T05:14:39.990Z,13.38
2018-12-19T05:17:08.336Z,13.93
2018-12-19T05:19:36.529Z,11.85
2018-12-19T05:22:04.735Z,13.28
2018-12-19T05:24:33.011Z,13.00
2018-12-19T05:27:01.201Z,11.85
2018-12-19T05:29:29.420Z,14.90
2018-12-19T05:31:57.688Z,14.00
2018-12-19T05:34:25.960Z,15.10
2018-12-19T05:36:54.176Z,14.73
2018-12-19T05:39:22.538Z,16.52
2018-12-19T05:41:50.743Z,13.83
2018-12-19T05:44:19.008Z,13.53
2018-12-19T05:46:47.266Z,14.15
2018-12-19T05:49:15.611Z,13.78
2018-12-19T05:51:52.451Z,14.00
2018-12-19T05:54:20.748Z,15.03
2018-12-19T05:56:48.998Z,12.07
2018-12-19T05:59:17.271Z,13.32
2018-12-19T06:01:45.543Z,17.07
2018-12-19T06:04:13.774Z,15.35
2018-12-19T06:06:41.967Z,15.30
2018-12-19T06:09:10.199Z,15.58
2018-12-19T06:11:38.474Z,15.35
2018-12-19T06:14:06.730Z,15.70
2018-12-19T06:16:34.924Z,14.98
2018-12-19T06:19:03.138Z,18.85
2018-12-19T06:21:32.248Z,18.87
2018-12-19T06:24:00.674Z,17.37
2018-12-19T06:26:28.972Z,16.55
2018-12-19T06:28:57.247Z,16.80
2018-12-19T06:31:38.323Z,18.23
2018-12-19T06:34:06.499Z,14.80
2018-12-19T06:36:45.848Z,15.90
2018-12-19T06:39:14.149Z,17.20
2018-12-19T06:41:42.612Z,18.35
2018-12-19T06:44:10.874Z,17.80
2018-12-19T06:46:40.039Z,19.85
2018-12-19T06:49:08.280Z,14.68
2018-12-19T06:51:43.128Z,15.70
2018-12-19T06:54:11.807Z,20.15
2018-12-19T06:56:40.047Z,15.18
2018-12-19T06:59:08.436Z,19.80
2018-12-19T07:01:36.760Z,18.90
2018-12-19T07:04:04.966Z,16.02
2018-12-19T07:06:33.273Z,17.85
2018-12-19T07:09:01.783Z,15.90
2018-12-19T07:11:30.110Z,17.17
2018-12-19T07:13:58.449Z,15.63
2018-12-19T07:16:27.961Z,16.32
2018-12-19T07:18:56.284Z,15.35
2018-12-19T07:21:25.918Z,15.32
2018-12-19T07:23:54.463Z,20.60
2018-12-19T07:26:22.757Z,18.98
2018-12-19T07:28:51.028Z,16.67
2018-12-19T07:31:19.304Z,19.50
2018-12-19T07:33:48.207Z,20.60
2018-12-19T07:36:16.553Z,18.10
2018-12-19T07:38:44.870Z,18.85
2018-12-19T07:41:13.104Z,14.47
2018-12-19T07:43:41.338Z,17.55
2018-12-19T07:46:09.536Z,16.60
2018-12-19T07:48:37.935Z,17.00
2018-12-19T07:51:06.155Z,16.80
2018-12-19T07:53:37.171Z,18.15
2018-12-19T07:56:05.832Z,22.07
2018-12-19T07:58:34.146Z,18.87
2018-12-19T08:01:02.432Z,21.15
2018-12-19T08:03:30.655Z,18.27
2018-12-19T08:05:58.842Z,17.40
2018-12-19T08:08:27.002Z,16.80
2018-12-19T08:10:55.293Z,20.08
2018-12-19T08:13:23.520Z,16.97
2018-12-19T08:15:51.744Z,18.62
2018-12-19T08:18:19.925Z,19.20
2018-12-19T08:20:48.809Z,18.23
2018-12-19T08:23:17.000Z,17.30
2018-12-19T08:25:45.371Z,18.15
2018-12-19T08:28:15.956Z,18.90
2018-12-19T08:30:44.226Z,21.20
2018-12-19T08:33:12.437Z,16.23
2018-12-19T08:35:47.197Z,16.82
2018-12-19T08:38:15.487Z,15.45
2018-12-19T08:40:43.705Z,15.25
2018-12-19T08:43:11.850Z,18.05
2018-12-19T08:45:40.687Z,16.77
2018-12-19T08:48:09.004Z,18.05
2018-12-19T08:50:37.233Z,17.40
2018-12-19T08:53:05.600Z,16.75
2018-12-19T08:55:34.868Z,15.78
2018-12-19T08:58:03.169Z,19.37
2018-12-19T09:00:31.439Z,16.48
2018-12-19T09:02:59.690Z,16.90
2018-12-19T09:05:27.971Z,20.52
2018-12-19T09:07:56.111Z,18.07
2018-12-19T09:10:24.368Z,16.32
2018-12-19T09:12:52.529Z,18.07
2018-12-19T09:15:27.752Z,15.15
2018-12-19T09:17:56.405Z,17.70
2018-12-19T09:20:25.239Z,21.00
2018-12-19T09:22:53.467Z,16.12
2018-12-19T09:25:21.795Z,17.92
2018-12-19T09:27:50.396Z,17.27
2018-12-19T09:30:19.418Z,17.60
2018-12-19T09:32:47.784Z,17.07
2018-12-19T09:35:16.057Z,17.60
2018-12-19T09:37:44.193Z,17.85
2018-12-19T09:40:12.430Z,17.60
2018-12-19T09:42:40.659Z,16.95
2018-12-19T09:45:08.888Z,17.10
2018-12-19T09:47:37.158Z,19.55
2018-12-19T09:50:05.483Z,19.52
2018-12-19T09:52:33.744Z,20.30
2018-12-19T09:55:01.948Z,15.93
2018-12-19T09:57:30.490Z,21.73
2018-12-19T09:59:58.765Z,16.95
2018-12-19T10:02:27.015Z,17.70
2018-12-19T10:04:55.171Z,19.35
2018-12-19T10:07:23.400Z,16.52
2018-12-19T10:09:51.696Z,18.27
2018-12-19T10:12:20.005Z,17.55
2018-12-19T10:14:48.511Z,17.23
2018-12-19T10:17:16.803Z,13.90
2018-12-19T10:19:45.062Z,17.55
2018-12-19T10:22:17.559Z,16.62
2018-12-19T10:24:51.280Z,18.27
2018-12-19T10:27:21.559Z,18.37
2018-12-19T10:29:49.847Z,18.20
2018-12-19T10:32:18.082Z,16.48
2018-12-19T10:34:46.321Z,16.07
2018-12-19T10:37:14.626Z,17.20
2018-12-19T10:39:43.041Z,17.60
2018-12-19T10:42:11.252Z,17.10
2018-12-19T10:44:39.476Z,17.62
2018-12-19T10:47:07.795Z,17.67
2018-12-19T10:49:36.074Z,17.80
2018-12-19T10:52:04.435Z,17.52
2018-12-19T10:54:32.793Z,18.27
2018-12-19T10:57:01.003Z,19.25
2018-12-19T10:59:29.181Z,17.20
2018-12-19T11:01:57.465Z,20.35
2018-12-19T11:04:25.738Z,20.25
2018-12-19T11:06:54.012Z,18.07
2018-12-19T11:09:22.291Z,17.98
2018-12-19T11:11:50.470Z,16.45
2018-12-19T11:14:18.701Z,21.62
2018-12-19T11:16:46.955Z,18.37
2018-12-19T11:19:15.122Z,22.17
2018-12-19T11:21:43.339Z,17.85
2018-12-19T11:24:11.655Z,19.98
2018-12-19T11:26:40.173Z,17.37
2018-12-19T11:29:08.400Z,19.15
2018-12-19T11:31:36.706Z,19.50
2018-12-19T11:34:04.913Z,15.15
2018-12-19T11:36:33.174Z,18.85
2018-12-19T11:39:01.436Z,19.40
2018-12-19T11:41:29.713Z,18.82
2018-12-19T11:43:58.139Z,20.72
2018-12-19T11:46:26.552Z,21.90
2018-12-19T11:48:54.828Z,21.33
2018-12-19T11:51:23.158Z,21.40
2018-12-19T11:53:51.370Z,17.48
2018-12-19T11:56:19.648Z,20.02
2018-12-19T11:58:47.926Z,19.67
2018-12-19T12:01:16.077Z,17.98
2018-12-19T12:03:44.329Z,20.40
2018-12-19T12:06:12.616Z,19.20
2018-12-19T12:08:40.906Z,19.67
2018-12-19T12:11:09.070Z,21.60
2018-12-19T12:13:37.307Z,21.35
2018-12-19T12:16:05.578Z,21.50
2018-12-19T12:18:33.844Z,21.70
2018-12-19T12:21:02.062Z,23.10
2018-12-19T12:23:30.252Z,22.30
2018-12-19T12:25:58.518Z,23.05
2018-12-19T12:28:26.664Z,21.73
2018-12-19T12:30:54.934Z,21.50
2018-12-19T12:33:23.252Z,20.85
2018-12-19T12:35:54.599Z,20.88
2018-12-19T12:38:26.150Z,19.48
2018-12-19T12:40:54.428Z,23.05
2018-12-19T12:43:22.579Z,22.52
2018-12-19T12:45:50.745Z,23.55
2018-12-19T12:48:20.069Z,20.97
2018-12-19T12:50:48.288Z,22.73
2018-12-19T12:55:51.156Z,24.52
2018-12-19T12:58:19.449Z,22.35
2018-12-19T13:00:47.745Z,20.77
2018-12-19T13:03:16.045Z,22.40
2018-12-19T13:05:44.261Z,24.23
2018-12-19T13:08:12.500Z,22.20
2018-12-19T13:10:42.791Z,23.42
2018-12-19T13:13:11.014Z,20.25
2018-12-19T13:15:41.026Z,23.65
2018-12-19T13:18:09.260Z,24.27
2018-12-19T13:20:37.541Z,24.98
2018-12-19T13:23:05.780Z,25.55
2018-12-19T13:25:34.048Z,20.32
2018-12-19T13:28:06.575Z,21.25
2018-12-19T13:30:34.854Z,22.50
2018-12-19T13:33:03.063Z,22.20
2018-12-19T13:35:31.278Z,25.45
2018-12-19T13:37:59.493Z,23.80
2018-12-19T13:40:27.739Z,22.75
2018-12-19T13:42:56.031Z,22.75
2018-12-19T13:45:24.348Z,24.98
2018-12-19T13:47:52.534Z,21.90
2018-12-19T13:50:20.809Z,23.92
2018-12-19T13:52:49.105Z,24.70
2018-12-19T13:55:17.330Z,27.75
2018-12-19T13:57:45.587Z,22.60
2018-12-19T14:00:13.826Z,23.95
2018-12-19T14:02:56.899Z,24.25
2018-12-19T14:05:27.165Z,23.27
2018-12-19T14:07:55.383Z,27.17
2018-12-19T14:10:23.641Z,25.45
2018-12-19T14:12:51.974Z,23.07
2018-12-19T14:15:21.331Z,25.30
2018-12-19T14:17:49.565Z,25.15
2018-12-19T14:20:17.883Z,28.20
2018-12-19T14:22:46.195Z,28.00
2018-12-19T14:25:14.407Z,26.82
2018-12-19T14:27:42.667Z,24.72
2018-12-19T14:30:11.014Z,23.65
2018-12-19T14:32:39.270Z,30.72
2018-12-19T14:35:07.559Z,28.23
2018-12-19T14:37:35.751Z,25.72
2018-12-19T14:40:04.591Z,28.27
2018-12-19T14:42:32.919Z,24.18
2018-12-19T14:45:01.191Z,24.02
2018-12-19T14:47:29.344Z,23.38
2018-12-19T14:49:57.596Z,28.23
2018-12-19T14:52:25.775Z,24.23
2018-12-19T14:54:54.079Z,26.20
2018-12-19T14:57:22.312Z,24.05
2018-12-19T14:59:51.859Z,24.67
2018-12-19T15:02:20.436Z,28.00
2018-12-19T15:04:48.990Z,25.92
2018-12-19T15:07:17.405Z,32.60
2018-12-19T15:09:45.686Z,28.23
2018-12-19T15:12:13.913Z,29.10
2018-12-19T15:14:42.214Z,29.05
2018-12-19T15:17:13.837Z,27.05
2018-12-19T15:19:40.769Z,29.25
2018-12-19T15:22:09.041Z,26.82
2018-12-19T15:24:37.512Z,34.05
2018-12-19T15:27:05.719Z,29.57
2018-12-19T15:29:34.035Z,28.17
2018-12-19T15:32:02.271Z,29.32
2018-12-19T15:34:30.464Z,27.55
2018-12-19T15:36:58.751Z,31.07
2018-12-19T15:39:30.156Z,31.42
2018-12-19T15:41:58.428Z,29.92
2018-12-19T15:44:26.728Z,31.77
2018-12-19T15:46:54.893Z,34.70
2018-12-19T15:49:23.200Z,31.45
2018-12-19T15:51:52.619Z,33.50
2018-12-19T15:54:20.971Z,29.37
2018-12-19T15:56:49.255Z,28.57
2018-12-19T15:59:17.542Z,30.43
2018-12-19T16:01:45.809Z,34.10
2018-12-19T16:04:14.757Z,30.92
2018-12-19T16:06:43.029Z,32.58
2018-12-19T16:09:11.267Z,31.37
2018-12-19T16:11:39.485Z,32.95
2018-12-19T16:14:07.775Z,36.28
2018-12-19T16:16:36.003Z,30.77
2018-12-19T16:19:04.251Z,36.63
2018-12-19T16:21:32.521Z,38.30
2018-12-19T16:24:00.821Z,35.10
2018-12-19T16:26:29.074Z,34.55
2018-12-19T16:28:57.367Z,35.85
2018-12-19T16:31:25.617Z,34.90
2018-12-19T16:33:53.899Z,34.43
2018-12-19T16:36:22.240Z,33.53
2018-12-19T16:38:50.516Z,32.78
2018-12-19T16:41:18.839Z,37.42
2018-12-19T16:43:47.129Z,42.88
2018-12-19T16:46:15.386Z,35.10
2018-12-19T16:48:43.690Z,35.55
2018-12-19T16:51:11.897Z,35.65
2018-12-19T16:53:40.211Z,32.80
2018-12-19T16:56:08.427Z,40.65
2018-12-19T16:58:36.676Z,35.70
2018-12-19T17:01:04.936Z,39.27
2018-12-19T17:03:33.218Z,37.75
2018-12-19T17:06:01.562Z,34.95
2018-12-19T17:08:29.811Z,36.17
2018-12-19T17:10:58.186Z,38.20
2018-12-19T17:13:26.481Z,37.40
2018-12-19T17:15:54.691Z,35.50
2018-12-19T17:18:22.995Z,38.20
2018-12-19T17:20:51.276Z,41.05
2018-12-19T17:23:19.565Z,35.45
2018-12-19T17:25:47.876Z,43.70
2018-12-19T17:28:16.169Z,36.95
2018-12-19T17:30:44.390Z,40.83
2018-12-19T17:33:12.679Z,38.23
2018-12-19T17:35:41.052Z,40.10
2018-12-19T17:38:09.436Z,40.88
2018-12-19T17:40:37.675Z,39.90
2018-12-19T17:43:06.015Z,40.50
2018-12-19T17:45:34.597Z,44.50
2018-12-19T17:48:02.833Z,41.05
2018-12-19T17:50:31.421Z,45.90
2018-12-19T17:52:59.760Z,38.02
2018-12-19T17:55:29.039Z,42.13
2018-12-19T17:57:57.269Z,49.60
2018-12-19T18:00:25.652Z,41.40
2018-12-19T18:02:53.955Z,39.50
2018-12-19T18:05:22.114Z,41.13
2018-12-19T18:07:50.394Z,43.65
2018-12-19T18:10:18.805Z,42.70
2018-12-19T18:12:47.122Z,45.80
2018-12-19T18:15:15.400Z,44.42
2018-12-19T18:17:43.948Z,47.83
2018-12-19T18:20:12.273Z,45.92
2018-12-19T18:22:40.485Z,44.80
2018-12-19T18:25:08.814Z,42.48
2018-12-19T18:27:37.156Z,46.55
2018-12-19T18:30:06.033Z,46.23
2018-12-19T18:32:34.507Z,48.78
2018-12-19T18:35:02.791Z,52.15
2018-12-19T18:37:31.051Z,46.58
2018-12-19T18:39:59.232Z,49.15
2018-12-19T18:42:27.462Z,45.83
2018-12-19T18:44:55.664Z,45.03
2018-12-19T18:47:23.918Z,44.13
2018-12-19T18:49:52.251Z,45.75
2018-12-19T18:52:21.920Z,45.08
2018-12-19T18:54:50.830Z,57.83
2018-12-19T18:57:19.177Z,51.95
2018-12-19T18:59:47.502Z,57.58
2018-12-19T19:02:15.726Z,55.33
2018-12-19T19:04:44.013Z,53.85
2018-12-19T19:07:12.420Z,56.20
2018-12-19T19:09:40.662Z,53.05
2018-12-19T19:12:09.212Z,56.70
2018-12-19T19:14:37.586Z,50.15
2018-12-19T19:17:05.952Z,53.55
2018-12-19T19:19:34.342Z,51.20
2018-12-19T19:22:02.745Z,55.92
2018-12-19T19:24:31.104Z,54.50
2018-12-19T19:26:59.333Z,53.13
2018-12-19T19:29:27.584Z,56.08
2018-12-19T19:31:55.899Z,49.50
2018-12-19T19:34:25.178Z,52.38
2018-12-19T19:36:53.679Z,48.65
2018-12-19T19:39:22.330Z,52.25
2018-12-19T19:41:50.551Z,53.33
2018-12-19T19:44:18.873Z,46.70
2018-12-19T19:46:47.090Z,49.85
2018-12-19T19:49:15.388Z,55.15
2018-12-19T19:51:43.667Z,52.55
2018-12-19T19:54:11.875Z,54.42
2018-12-19T19:56:40.192Z,50.73
2018-12-19T19:59:08.493Z,48.10
2018-12-19T20:01:36.780Z,47.95
2018-12-19T20:04:04.966Z,45.85
2018-12-19T20:06:33.571Z,52.05
2018-12-19T20:09:01.867Z,51.55
2018-12-19T20:11:30.259Z,46.88
2018-12-19T20:13:58.810Z,50.73
2018-12-19T20:16:27.064Z,54.40
2018-12-19T20:18:55.417Z,54.25
2018-12-19T20:21:23.587Z,55.52
2018-12-19T20:23:51.847Z,57.38
2018-12-19T20:26:20.204Z,54.30
2018-12-19T20:28:48.443Z,51.33
2018-12-19T20:31:16.613Z,58.05
2018-12-19T20:33:44.877Z,50.90
2018-12-19T20:36:13.140Z,51.45
2018-12-19T20:38:41.338Z,50.03
2018-12-19T20:41:09.569Z,52.23
2018-12-19T20:43:40.041Z,53.25
2018-12-19T20:46:08.090Z,53.95
2018-12-19T20:48:36.350Z,57.35
2018-12-19T20:51:04.581Z,58.30
2018-12-19T20:53:32.755Z,61.25
2018-12-19T20:56:03.917Z,57.27
2018-12-19T20:58:31.219Z,57.70
2018-12-19T21:00:59.473Z,59.15
2018-12-19T21:03:27.727Z,56.58
2018-12-19T21:05:55.881Z,54.60
2018-12-19T21:08:24.076Z,54.58
2018-12-19T21:10:52.359Z,62.25
2018-12-19T21:13:20.600Z,51.05
2018-12-19T21:15:48.906Z,58.17
2018-12-19T21:18:22.584Z,53.40
2018-12-19T21:20:50.963Z,54.23
2018-12-19T21:23:19.211Z,56.25
2018-12-19T21:25:47.360Z,57.95
2018-12-19T21:28:15.575Z,50.40
2018-12-19T21:30:43.857Z,53.28
2018-12-19T21:33:14.086Z,55.33
2018-12-19T21:35:42.459Z,49.25
2018-12-19T21:38:10.904Z,55.55
2018-12-19T21:40:39.127Z,59.73
2018-12-19T21:43:07.915Z,56.05
2018-12-19T21:45:36.251Z,58.90
2018-12-19T21:48:04.525Z,50.90
2018-12-19T21:50:32.962Z,54.93
2018-12-19T21:53:01.264Z,61.25
2018-12-19T21:55:29.521Z,69.05
2018-12-19T21:57:57.719Z,56.30
2018-12-19T22:00:30.645Z,58.87
2018-12-19T22:03:03.369Z,54.53
2018-12-19T22:05:31.605Z,54.90
2018-12-19T22:07:59.888Z,54.33
2018-12-19T22:10:28.161Z,59.65
2018-12-19T22:12:56.492Z,57.65
2018-12-19T22:15:24.812Z,58.35
2018-12-19T22:17:57.418Z,60.95
2018-12-19T22:20:25.752Z,50.15
2018-12-19T22:22:54.160Z,55.28
2018-12-19T22:25:22.421Z,53.00
2018-12-19T22:27:50.667Z,48.63
2018-12-19T22:30:18.931Z,52.03
2018-12-19T22:32:47.171Z,52.85
2018-12-19T22:35:15.393Z,50.88
2018-12-19T22:37:43.678Z,52.45
2018-12-19T22:40:12.002Z,51.10
2018-12-19T22:42:40.260Z,51.48
2018-12-19T22:45:08.545Z,54.93
2018-12-19T22:47:36.876Z,60.08
2018-12-19T22:50:06.011Z,56.00
2018-12-19T22:52:34.211Z,58.23
2018-12-19T22:55:02.607Z,48.50
2018-12-19T22:57:30.844Z,57.00
2018-12-19T22:59:59.137Z,62.75
2018-12-19T23:02:32.723Z,59.88
2018-12-19T23:05:00.971Z,64.27
2018-12-19T23:07:29.224Z,54.25
2018-12-19T23:09:57.514Z,57.98
2018-12-19T23:12:25.867Z,64.35
2018-12-19T23:14:54.111Z,58.13
2018-12-19T23:17:27.937Z,72.12
2018-12-19T23:19:56.216Z,61.73
2018-12-19T23:22:24.426Z,68.80
2018-12-19T23:24:52.677Z,62.88
2018-12-19T23:27:22.350Z,68.92
2018-12-19T23:29:50.781Z,61.92
2018-12-19T23:32:23.388Z,58.33
2018-12-19T23:34:51.626Z,75.32
2018-12-19T23:37:19.882Z,63.48
2018-12-19T23:39:48.043Z,64.50
2018-12-19T23:42:16.347Z,60.25
2018-12-19T23:44:44.622Z,68.47
2018-12-19T23:47:12.883Z,63.52
2018-12-19T23:49:41.187Z,70.37
2018-12-19T23:52:09.566Z,70.20
2018-12-19T23:54:38.069Z,60.00
2018-12-19T23:57:06.391Z,61.15
2018-12-19T23:59:34.707Z,61.35
